Portada
METAR-TAF:

METAR-TAF

Aeropuertos :

Argel, Argelia

Aeropuerto Internacional Houari Boumedienne

latitud: 36-43N, longitud: 003-15E, altitud: 25 m

Observación

El informe se hizo hace 26 minutos, a las 09:00 UTC
Viento 3 kt del suroeste, variando entre sur y oeste-noroeste
Temperatura 22°C
Humedad 43%
Presión 1016 hPa
Visibilidad: 8000 m

METAR: DAAG 240900Z 23003KT 180V290 8000 NSC 22/09 Q1016

Hora: 10:26 (09:26 UTC)

Pronóstico

El informe se hizo hace 4 horas y 26 minutos, a las 05:00 UTC
Pronóstico válido del 24 a las 06 UTC al 25 a las 06 UTC
Viento 2 kt con dirección variable
Visibilidad 10 km o más
Escasas nubes a una altura de 2600 ft
Evolucionando progresivamente
del 24 a las 09 UTC al 24 a las 12 UTC
Viento 10 kt del norte
Evolucionando progresivamente
del 24 a las 17 UTC al 24 a las 20 UTC
Viento 2 kt con dirección variable

TAF: DAAG 240500Z 2406/2506 VRB02KT 9999 FEW026 BECMG 2409/2412 01010KT BECMG 2417/2420 VRB02KT

Observaciones y pronósticos meteorológicos de más de 4000 aeropuertos (mensajes METAR y TAF).

Los puntos amarillos y rojos representan las estaciones disponibles.

Ponga el ratón en el punto deseado para ver el nombre de la estación.

Haga clic para ver las observaciones y los pronósticos meteorológicos.

Para cambiar el mapa : haga clic en los botones verdes con una cruz de color negro para hacer un zoom, en el botón verde con un guión para alejar o en las flechas verdes para mapas adyacentes.


METAR-TAF: